sensor_id;sensor_type;location;lat;lon;timestamp;temperature;humidity
19000;DHT22;9633;50.980;13.850;2023-08-07T00:01:09;15.10;99.90
19000;DHT22;9633;50.980;13.850;2023-08-07T00:02:42;15.10;99.90
19000;DHT22;9633;50.980;13.850;2023-08-07T00:04:14;15.00;99.90
19000;DHT22;9633;50.980;13.850;2023-08-07T00:05:48;15.00;99.90
19000;DHT22;9633;50.980;13.850;2023-08-07T00:07:20;15.00;99.90
19000;DHT22;9633;50.980;13.850;2023-08-07T00:08:53;15.00;99.90
19000;DHT22;9633;50.980;13.850;2023-08-07T00:10:26;15.00;99.90
19000;DHT22;9633;50.980;13.850;2023-08-07T00:11:59;15.00;99.90
19000;DHT22;9633;50.980;13.850;2023-08-07T00:13:32;15.00;99.90
19000;DHT22;9633;50.980;13.850;2023-08-07T00:15:05;15.00;99.90
19000;DHT22;9633;50.980;13.850;2023-08-07T00:16:41;15.00;99.90
19000;DHT22;9633;50.980;13.850;2023-08-07T00:18:13;15.00;99.90
19000;DHT22;9633;50.980;13.850;2023-08-07T00:19:47;15.10;99.90
19000;DHT22;9633;50.980;13.850;2023-08-07T00:21:19;15.10;99.90
19000;DHT22;9633;50.980;13.850;2023-08-07T00:22:52;15.10;99.90
19000;DHT22;9633;50.980;13.850;2023-08-07T00:24:24;15.10;99.90
19000;DHT22;9633;50.980;13.850;2023-08-07T00:25:57;15.10;99.90
19000;DHT22;9633;50.980;13.850;2023-08-07T00:27:30;15.10;99.90
19000;DHT22;9633;50.980;13.850;2023-08-07T00:29:03;15.10;99.90
19000;DHT22;9633;50.980;13.850;2023-08-07T00:30:36;15.10;99.90
19000;DHT22;9633;50.980;13.850;2023-08-07T00:32:09;15.10;99.90
19000;DHT22;9633;50.980;13.850;2023-08-07T00:33:45;15.10;99.90
19000;DHT22;9633;50.980;13.850;2023-08-07T00:35:18;15.10;99.90
19000;DHT22;9633;50.980;13.850;2023-08-07T00:36:50;15.10;99.90
19000;DHT22;9633;50.980;13.850;2023-08-07T00:38:24;15.10;99.90
19000;DHT22;9633;50.980;13.850;2023-08-07T00:39:57;15.10;99.90
19000;DHT22;9633;50.980;13.850;2023-08-07T00:41:30;15.10;99.90
19000;DHT22;9633;50.980;13.850;2023-08-07T00:43:02;15.10;99.90
19000;DHT22;9633;50.980;13.850;2023-08-07T00:44:36;15.20;99.90
19000;DHT22;9633;50.980;13.850;2023-08-07T00:46:09;15.10;99.90
19000;DHT22;9633;50.980;13.850;2023-08-07T00:47:44;15.10;99.90
19000;DHT22;9633;50.980;13.850;2023-08-07T00:49:17;15.10;99.90
19000;DHT22;9633;50.980;13.850;2023-08-07T00:50:52;15.20;99.90
19000;DHT22;9633;50.980;13.850;2023-08-07T00:52:27;15.20;99.90
19000;DHT22;9633;50.980;13.850;2023-08-07T00:54:01;15.20;99.90
19000;DHT22;9633;50.980;13.850;2023-08-07T00:55:35;15.20;99.90
19000;DHT22;9633;50.980;13.850;2023-08-07T00:57:10;15.20;99.90
19000;DHT22;9633;50.980;13.850;2023-08-07T00:58:44;15.20;99.90
19000;DHT22;9633;50.980;13.850;2023-08-07T01:00:17;15.20;99.90
19000;DHT22;9633;50.980;13.850;2023-08-07T01:01:52;15.20;99.90
19000;DHT22;9633;50.980;13.850;2023-08-07T01:03:26;15.30;99.90
19000;DHT22;9633;50.980;13.850;2023-08-07T01:04:59;15.30;99.90
19000;DHT22;9633;50.980;13.850;2023-08-07T01:06:31;15.30;99.90
19000;DHT22;9633;50.980;13.850;2023-08-07T01:08:04;15.30;99.90
19000;DHT22;9633;50.980;13.850;2023-08-07T01:09:37;15.30;99.90
19000;DHT22;9633;50.980;13.850;2023-08-07T01:11:22;15.20;99.90
19000;DHT22;9633;50.980;13.850;2023-08-07T01:13:01;15.20;99.90
19000;DHT22;9633;50.980;13.850;2023-08-07T01:14:40;15.20;99.90
19000;DHT22;9633;50.980;13.850;2023-08-07T01:16:17;15.20;99.90
19000;DHT22;9633;50.980;13.850;2023-08-07T01:17:52;15.20;99.90
19000;DHT22;9633;50.980;13.850;2023-08-07T01:19:29;15.30;99.90
19000;DHT22;9633;50.980;13.850;2023-08-07T01:21:03;15.30;99.90
19000;DHT22;9633;50.980;13.850;2023-08-07T01:22:38;15.20;99.90
19000;DHT22;9633;50.980;13.850;2023-08-07T01:24:10;15.30;99.90
19000;DHT22;9633;50.980;13.850;2023-08-07T01:25:43;15.20;99.90
19000;DHT22;9633;50.980;13.850;2023-08-07T01:27:35;15.20;99.90
19000;DHT22;9633;50.980;13.850;2023-08-07T01:29:13;15.20;99.90
19000;DHT22;9633;50.980;13.850;2023-08-07T01:30:50;15.20;99.90
19000;DHT22;9633;50.980;13.850;2023-08-07T01:32:28;15.20;99.90
19000;DHT22;9633;50.980;13.850;2023-08-07T01:34:04;15.20;99.90
19000;DHT22;9633;50.980;13.850;2023-08-07T01:35:43;15.20;99.90
19000;DHT22;9633;50.980;13.850;2023-08-07T01:37:17;15.10;99.90
19000;DHT22;9633;50.980;13.850;2023-08-07T01:38:53;15.10;99.90
19000;DHT22;9633;50.980;13.850;2023-08-07T01:40:28;15.10;99.90
19000;DHT22;9633;50.980;13.850;2023-08-07T01:42:00;15.00;99.90
19000;DHT22;9633;50.980;13.850;2023-08-07T01:43:34;15.00;99.90
19000;DHT22;9633;50.980;13.850;2023-08-07T01:45:08;15.00;99.90
19000;DHT22;9633;50.980;13.850;2023-08-07T01:46:40;14.90;99.90
19000;DHT22;9633;50.980;13.850;2023-08-07T01:48:14;14.90;99.90
19000;DHT22;9633;50.980;13.850;2023-08-07T01:49:46;14.80;99.90
19000;DHT22;9633;50.980;13.850;2023-08-07T01:51:19;14.90;99.90
19000;DHT22;9633;50.980;13.850;2023-08-07T01:52:54;14.90;99.90
19000;DHT22;9633;50.980;13.850;2023-08-07T01:54:29;14.90;99.90
19000;DHT22;9633;50.980;13.850;2023-08-07T01:56:01;14.80;99.90
19000;DHT22;9633;50.980;13.850;2023-08-07T01:57:34;14.80;99.90
19000;DHT22;9633;50.980;13.850;2023-08-07T01:59:08;14.90;99.90
19000;DHT22;9633;50.980;13.850;2023-08-07T02:00:41;14.80;99.90
19000;DHT22;9633;50.980;13.850;2023-08-07T02:02:14;14.80;99.90
19000;DHT22;9633;50.980;13.850;2023-08-07T02:03:47;14.80;99.90
19000;DHT22;9633;50.980;13.850;2023-08-07T02:05:20;14.80;99.90
19000;DHT22;9633;50.980;13.850;2023-08-07T02:06:53;14.90;99.90
19000;DHT22;9633;50.980;13.850;2023-08-07T02:08:28;14.80;99.90
19000;DHT22;9633;50.980;13.850;2023-08-07T02:10:01;14.90;99.90
19000;DHT22;9633;50.980;13.850;2023-08-07T02:11:35;14.80;99.90
19000;DHT22;9633;50.980;13.850;2023-08-07T02:13:07;14.80;99.90
19000;DHT22;9633;50.980;13.850;2023-08-07T02:14:40;14.90;99.90
19000;DHT22;9633;50.980;13.850;2023-08-07T02:16:13;14.80;99.90
19000;DHT22;9633;50.980;13.850;2023-08-07T02:17:46;14.80;99.90
19000;DHT22;9633;50.980;13.850;2023-08-07T02:19:19;14.80;99.90
19000;DHT22;9633;50.980;13.850;2023-08-07T02:20:51;14.80;99.90
19000;DHT22;9633;50.980;13.850;2023-08-07T02:22:24;14.80;99.90
19000;DHT22;9633;50.980;13.850;2023-08-07T02:23:57;14.80;99.90
19000;DHT22;9633;50.980;13.850;2023-08-07T02:25:31;14.80;99.90
19000;DHT22;9633;50.980;13.850;2023-08-07T02:27:04;14.90;99.90
19000;DHT22;9633;50.980;13.850;2023-08-07T02:28:37;14.80;99.90
19000;DHT22;9633;50.980;13.850;2023-08-07T02:30:11;14.90;99.90
19000;DHT22;9633;50.980;13.850;2023-08-07T02:31:44;14.90;99.90
19000;DHT22;9633;50.980;13.850;2023-08-07T02:33:16;14.90;99.90
19000;DHT22;9633;50.980;13.850;2023-08-07T02:34:50;15.00;99.90
19000;DHT22;9633;50.980;13.850;2023-08-07T02:36:22;15.00;99.90
19000;DHT22;9633;50.980;13.850;2023-08-07T02:37:55;14.90;99.90
19000;DHT22;9633;50.980;13.850;2023-08-07T02:39:29;15.00;99.90
19000;DHT22;9633;50.980;13.850;2023-08-07T02:41:03;15.00;99.90
19000;DHT22;9633;50.980;13.850;2023-08-07T02:42:36;14.90;99.90
19000;DHT22;9633;50.980;13.850;2023-08-07T02:44:09;15.00;99.90
19000;DHT22;9633;50.980;13.850;2023-08-07T02:45:42;15.00;99.90
19000;DHT22;9633;50.980;13.850;2023-08-07T02:47:15;15.00;99.90
19000;DHT22;9633;50.980;13.850;2023-08-07T02:48:48;15.00;99.90
19000;DHT22;9633;50.980;13.850;2023-08-07T02:50:21;15.00;99.90
19000;DHT22;9633;50.980;13.850;2023-08-07T02:51:54;15.00;99.90
19000;DHT22;9633;50.980;13.850;2023-08-07T02:53:26;15.00;99.90
19000;DHT22;9633;50.980;13.850;2023-08-07T02:54:59;15.00;99.90
19000;DHT22;9633;50.980;13.850;2023-08-07T02:56:33;15.10;99.90
19000;DHT22;9633;50.980;13.850;2023-08-07T02:58:06;15.00;99.90
19000;DHT22;9633;50.980;13.850;2023-08-07T02:59:39;15.10;99.90
19000;DHT22;9633;50.980;13.850;2023-08-07T03:01:11;15.10;99.90
19000;DHT22;9633;50.980;13.850;2023-08-07T03:02:45;15.10;99.90
19000;DHT22;9633;50.980;13.850;2023-08-07T03:04:17;15.10;99.90
19000;DHT22;9633;50.980;13.850;2023-08-07T03:05:51;15.10;99.90
19000;DHT22;9633;50.980;13.850;2023-08-07T03:07:24;15.10;99.90
19000;DHT22;9633;50.980;13.850;2023-08-07T03:08:56;15.10;99.90
19000;DHT22;9633;50.980;13.850;2023-08-07T03:10:30;15.10;99.90
19000;DHT22;9633;50.980;13.850;2023-08-07T03:12:04;15.10;99.90
19000;DHT22;9633;50.980;13.850;2023-08-07T03:13:37;15.10;99.90
19000;DHT22;9633;50.980;13.850;2023-08-07T03:15:10;15.00;99.90
19000;DHT22;9633;50.980;13.850;2023-08-07T03:16:45;14.90;99.90
19000;DHT22;9633;50.980;13.850;2023-08-07T03:18:18;14.90;99.90
19000;DHT22;9633;50.980;13.850;2023-08-07T03:19:50;14.90;99.90
19000;DHT22;9633;50.980;13.850;2023-08-07T03:21:24;14.90;99.90
19000;DHT22;9633;50.980;13.850;2023-08-07T03:22:56;14.80;99.90
19000;DHT22;9633;50.980;13.850;2023-08-07T03:24:29;14.80;99.90
19000;DHT22;9633;50.980;13.850;2023-08-07T03:26:02;14.80;99.90
19000;DHT22;9633;50.980;13.850;2023-08-07T03:27:50;14.70;99.90
19000;DHT22;9633;50.980;13.850;2023-08-07T03:29:24;14.70;99.90
19000;DHT22;9633;50.980;13.850;2023-08-07T03:30:56;14.70;99.90
19000;DHT22;9633;50.980;13.850;2023-08-07T03:32:31;14.60;99.90
19000;DHT22;9633;50.980;13.850;2023-08-07T03:34:05;14.50;99.90
19000;DHT22;9633;50.980;13.850;2023-08-07T03:35:37;14.30;99.90
19000;DHT22;9633;50.980;13.850;2023-08-07T03:37:10;14.20;99.90
19000;DHT22;9633;50.980;13.850;2023-08-07T03:38:44;14.10;99.90
19000;DHT22;9633;50.980;13.850;2023-08-07T03:40:16;14.10;99.90
19000;DHT22;9633;50.980;13.850;2023-08-07T03:41:49;14.00;99.90
19000;DHT22;9633;50.980;13.850;2023-08-07T03:43:23;13.90;99.90
19000;DHT22;9633;50.980;13.850;2023-08-07T03:44:57;13.90;99.90
19000;DHT22;9633;50.980;13.850;2023-08-07T03:46:30;13.80;99.90
19000;DHT22;9633;50.980;13.850;2023-08-07T03:48:03;13.80;99.90
19000;DHT22;9633;50.980;13.850;2023-08-07T03:49:35;13.80;99.90
19000;DHT22;9633;50.980;13.850;2023-08-07T03:51:09;13.80;99.90
19000;DHT22;9633;50.980;13.850;2023-08-07T03:52:46;13.80;99.90
19000;DHT22;9633;50.980;13.850;2023-08-07T03:54:19;13.80;99.90
19000;DHT22;9633;50.980;13.850;2023-08-07T03:55:51;13.80;99.90
19000;DHT22;9633;50.980;13.850;2023-08-07T03:57:27;13.80;99.90
19000;DHT22;9633;50.980;13.850;2023-08-07T03:59:00;13.80;99.90
19000;DHT22;9633;50.980;13.850;2023-08-07T04:00:34;13.80;99.90
19000;DHT22;9633;50.980;13.850;2023-08-07T04:02:07;13.80;99.90
19000;DHT22;9633;50.980;13.850;2023-08-07T04:03:40;13.80;99.90
19000;DHT22;9633;50.980;13.850;2023-08-07T04:05:13;13.90;99.90
19000;DHT22;9633;50.980;13.850;2023-08-07T04:06:45;13.90;99.90
19000;DHT22;9633;50.980;13.850;2023-08-07T04:08:18;13.90;99.90
19000;DHT22;9633;50.980;13.850;2023-08-07T04:09:51;13.90;99.90
19000;DHT22;9633;50.980;13.850;2023-08-07T04:11:25;14.00;99.90
19000;DHT22;9633;50.980;13.850;2023-08-07T04:12:58;14.00;99.90
19000;DHT22;9633;50.980;13.850;2023-08-07T04:14:32;14.10;99.90
19000;DHT22;9633;50.980;13.850;2023-08-07T04:16:06;14.10;99.90
19000;DHT22;9633;50.980;13.850;2023-08-07T04:17:38;14.20;99.90
19000;DHT22;9633;50.980;13.850;2023-08-07T04:19:11;14.20;99.90
19000;DHT22;9633;50.980;13.850;2023-08-07T04:20:48;14.20;99.90
19000;DHT22;9633;50.980;13.850;2023-08-07T04:22:22;14.20;99.90
19000;DHT22;9633;50.980;13.850;2023-08-07T04:23:54;14.20;99.90
19000;DHT22;9633;50.980;13.850;2023-08-07T04:25:28;14.30;99.90
19000;DHT22;9633;50.980;13.850;2023-08-07T04:27:01;14.30;99.90
19000;DHT22;9633;50.980;13.850;2023-08-07T04:28:34;14.30;99.90
19000;DHT22;9633;50.980;13.850;2023-08-07T04:30:09;14.30;99.90
19000;DHT22;9633;50.980;13.850;2023-08-07T04:31:42;14.30;99.90
19000;DHT22;9633;50.980;13.850;2023-08-07T04:33:14;14.40;99.90
19000;DHT22;9633;50.980;13.850;2023-08-07T04:34:47;14.40;99.90
19000;DHT22;9633;50.980;13.850;2023-08-07T04:36:19;14.50;99.90
19000;DHT22;9633;50.980;13.850;2023-08-07T04:37:53;14.50;99.90
19000;DHT22;9633;50.980;13.850;2023-08-07T04:39:25;14.60;99.90
19000;DHT22;9633;50.980;13.850;2023-08-07T04:40:58;14.70;99.90
19000;DHT22;9633;50.980;13.850;2023-08-07T04:42:31;14.70;99.90
19000;DHT22;9633;50.980;13.850;2023-08-07T04:44:04;14.70;99.90
19000;DHT22;9633;50.980;13.850;2023-08-07T04:45:39;14.70;99.90
19000;DHT22;9633;50.980;13.850;2023-08-07T04:47:11;14.70;99.90
19000;DHT22;9633;50.980;13.850;2023-08-07T04:48:45;14.80;99.90
19000;DHT22;9633;50.980;13.850;2023-08-07T04:50:17;14.80;99.90
19000;DHT22;9633;50.980;13.850;2023-08-07T04:51:50;14.80;99.90
19000;DHT22;9633;50.980;13.850;2023-08-07T04:53:23;14.90;99.90
19000;DHT22;9633;50.980;13.850;2023-08-07T04:54:56;14.90;99.90
19000;DHT22;9633;50.980;13.850;2023-08-07T04:56:28;15.00;99.90
19000;DHT22;9633;50.980;13.850;2023-08-07T04:58:02;14.90;99.90
19000;DHT22;9633;50.980;13.850;2023-08-07T04:59:35;15.00;99.90
19000;DHT22;9633;50.980;13.850;2023-08-07T05:01:09;14.90;99.90
19000;DHT22;9633;50.980;13.850;2023-08-07T05:02:42;15.00;99.90
19000;DHT22;9633;50.980;13.850;2023-08-07T05:04:15;15.00;99.90
19000;DHT22;9633;50.980;13.850;2023-08-07T05:05:47;15.00;99.90
19000;DHT22;9633;50.980;13.850;2023-08-07T05:07:20;15.10;99.90
19000;DHT22;9633;50.980;13.850;2023-08-07T05:08:53;15.10;99.90
19000;DHT22;9633;50.980;13.850;2023-08-07T05:10:26;15.10;99.90
19000;DHT22;9633;50.980;13.850;2023-08-07T05:11:58;15.10;99.90
19000;DHT22;9633;50.980;13.850;2023-08-07T05:13:31;15.10;99.90
19000;DHT22;9633;50.980;13.850;2023-08-07T05:15:05;15.10;99.90
19000;DHT22;9633;50.980;13.850;2023-08-07T05:16:39;15.10;99.90
19000;DHT22;9633;50.980;13.850;2023-08-07T05:18:12;15.20;99.90
19000;DHT22;9633;50.980;13.850;2023-08-07T05:19:44;15.20;99.90
19000;DHT22;9633;50.980;13.850;2023-08-07T05:21:18;15.20;99.90
19000;DHT22;9633;50.980;13.850;2023-08-07T05:22:51;15.30;99.90
19000;DHT22;9633;50.980;13.850;2023-08-07T05:24:25;15.40;99.90
19000;DHT22;9633;50.980;13.850;2023-08-07T05:25:57;15.50;99.90
19000;DHT22;9633;50.980;13.850;2023-08-07T05:27:30;15.50;99.90
19000;DHT22;9633;50.980;13.850;2023-08-07T05:29:03;15.50;99.90
19000;DHT22;9633;50.980;13.850;2023-08-07T05:30:36;15.50;99.90
19000;DHT22;9633;50.980;13.850;2023-08-07T05:32:10;15.50;99.90
19000;DHT22;9633;50.980;13.850;2023-08-07T05:33:43;15.60;99.90
19000;DHT22;9633;50.980;13.850;2023-08-07T05:35:15;15.60;99.90
19000;DHT22;9633;50.980;13.850;2023-08-07T05:36:48;15.60;99.90
19000;DHT22;9633;50.980;13.850;2023-08-07T05:38:21;15.70;99.90
19000;DHT22;9633;50.980;13.850;2023-08-07T05:39:55;15.80;99.90
19000;DHT22;9633;50.980;13.850;2023-08-07T05:41:27;15.90;99.90
19000;DHT22;9633;50.980;13.850;2023-08-07T05:43:00;15.90;99.90
19000;DHT22;9633;50.980;13.850;2023-08-07T05:44:32;15.90;99.90
19000;DHT22;9633;50.980;13.850;2023-08-07T05:46:05;15.90;99.90
19000;DHT22;9633;50.980;13.850;2023-08-07T05:47:39;15.90;99.90
19000;DHT22;9633;50.980;13.850;2023-08-07T05:49:12;16.00;99.90
19000;DHT22;9633;50.980;13.850;2023-08-07T05:50:44;16.10;99.90
19000;DHT22;9633;50.980;13.850;2023-08-07T05:52:17;16.10;99.90
19000;DHT22;9633;50.980;13.850;2023-08-07T05:53:50;16.10;99.90
19000;DHT22;9633;50.980;13.850;2023-08-07T05:55:23;16.20;99.90
19000;DHT22;9633;50.980;13.850;2023-08-07T05:56:57;16.20;99.90
19000;DHT22;9633;50.980;13.850;2023-08-07T05:58:30;16.40;99.90
19000;DHT22;9633;50.980;13.850;2023-08-07T06:00:04;16.60;99.90
19000;DHT22;9633;50.980;13.850;2023-08-07T06:01:44;16.50;99.90
19000;DHT22;9633;50.980;13.850;2023-08-07T06:03:19;16.60;99.90
19000;DHT22;9633;50.980;13.850;2023-08-07T06:04:52;16.80;99.90
19000;DHT22;9633;50.980;13.850;2023-08-07T06:06:25;16.80;99.90
19000;DHT22;9633;50.980;13.850;2023-08-07T06:07:59;16.80;99.90
19000;DHT22;9633;50.980;13.850;2023-08-07T06:09:32;17.00;99.90
19000;DHT22;9633;50.980;13.850;2023-08-07T06:11:05;17.20;99.90
19000;DHT22;9633;50.980;13.850;2023-08-07T06:12:40;17.30;99.90
19000;DHT22;9633;50.980;13.850;2023-08-07T06:14:12;17.30;99.90
19000;DHT22;9633;50.980;13.850;2023-08-07T06:15:48;17.40;99.90
19000;DHT22;9633;50.980;13.850;2023-08-07T06:17:20;17.70;99.90
19000;DHT22;9633;50.980;13.850;2023-08-07T06:18:55;17.50;99.90
19000;DHT22;9633;50.980;13.850;2023-08-07T06:20:27;17.10;99.90
19000;DHT22;9633;50.980;13.850;2023-08-07T06:22:00;16.90;99.90
19000;DHT22;9633;50.980;13.850;2023-08-07T06:23:33;16.90;99.90
19000;DHT22;9633;50.980;13.850;2023-08-07T06:25:06;17.00;99.90
19000;DHT22;9633;50.980;13.850;2023-08-07T06:26:40;17.10;99.90
19000;DHT22;9633;50.980;13.850;2023-08-07T06:28:12;16.90;99.90
19000;DHT22;9633;50.980;13.850;2023-08-07T06:29:46;16.70;99.90
19000;DHT22;9633;50.980;13.850;2023-08-07T06:31:18;16.70;99.90
19000;DHT22;9633;50.980;13.850;2023-08-07T06:32:51;17.10;99.90
19000;DHT22;9633;50.980;13.850;2023-08-07T06:34:25;17.40;99.90
19000;DHT22;9633;50.980;13.850;2023-08-07T06:35:58;17.60;99.90
19000;DHT22;9633;50.980;13.850;2023-08-07T06:37:30;17.50;99.90
19000;DHT22;9633;50.980;13.850;2023-08-07T06:39:04;17.50;99.90
19000;DHT22;9633;50.980;13.850;2023-08-07T06:40:37;17.40;99.90
19000;DHT22;9633;50.980;13.850;2023-08-07T06:42:09;17.30;99.90
19000;DHT22;9633;50.980;13.850;2023-08-07T06:43:46;17.00;99.90
19000;DHT22;9633;50.980;13.850;2023-08-07T06:45:19;17.00;99.90
19000;DHT22;9633;50.980;13.850;2023-08-07T06:46:52;17.00;99.90
19000;DHT22;9633;50.980;13.850;2023-08-07T06:48:25;17.20;99.90
19000;DHT22;9633;50.980;13.850;2023-08-07T06:50:00;17.50;99.90
19000;DHT22;9633;50.980;13.850;2023-08-07T06:51:32;17.50;99.90
19000;DHT22;9633;50.980;13.850;2023-08-07T06:53:05;17.50;99.90
19000;DHT22;9633;50.980;13.850;2023-08-07T06:54:37;17.50;99.90
19000;DHT22;9633;50.980;13.850;2023-08-07T06:56:10;17.50;99.90
19000;DHT22;9633;50.980;13.850;2023-08-07T06:57:44;17.30;99.90
19000;DHT22;9633;50.980;13.850;2023-08-07T06:59:17;17.30;99.90
19000;DHT22;9633;50.980;13.850;2023-08-07T07:00:49;17.20;99.90
19000;DHT22;9633;50.980;13.850;2023-08-07T07:02:22;17.40;99.90
19000;DHT22;9633;50.980;13.850;2023-08-07T07:03:54;17.60;99.90
19000;DHT22;9633;50.980;13.850;2023-08-07T07:05:29;17.90;99.90
19000;DHT22;9633;50.980;13.850;2023-08-07T07:07:02;18.20;99.90
19000;DHT22;9633;50.980;13.850;2023-08-07T07:08:35;18.00;99.90
19000;DHT22;9633;50.980;13.850;2023-08-07T07:10:08;17.90;99.90
19000;DHT22;9633;50.980;13.850;2023-08-07T07:11:42;17.90;99.90
19000;DHT22;9633;50.980;13.850;2023-08-07T07:13:15;18.10;99.90
19000;DHT22;9633;50.980;13.850;2023-08-07T07:14:47;18.30;99.90
19000;DHT22;9633;50.980;13.850;2023-08-07T07:16:20;18.30;99.90
19000;DHT22;9633;50.980;13.850;2023-08-07T07:17:54;18.40;99.90
19000;DHT22;9633;50.980;13.850;2023-08-07T07:19:27;18.10;99.90
19000;DHT22;9633;50.980;13.850;2023-08-07T07:21:01;17.90;99.90
19000;DHT22;9633;50.980;13.850;2023-08-07T07:22:34;18.10;99.90
19000;DHT22;9633;50.980;13.850;2023-08-07T07:24:07;17.90;99.90
19000;DHT22;9633;50.980;13.850;2023-08-07T07:25:39;17.60;99.90
19000;DHT22;9633;50.980;13.850;2023-08-07T07:27:12;17.40;99.90
19000;DHT22;9633;50.980;13.850;2023-08-07T07:28:44;17.40;99.90
19000;DHT22;9633;50.980;13.850;2023-08-07T07:30:18;17.50;99.90
19000;DHT22;9633;50.980;13.850;2023-08-07T07:31:51;17.40;99.90
19000;DHT22;9633;50.980;13.850;2023-08-07T07:33:23;17.10;99.90
19000;DHT22;9633;50.980;13.850;2023-08-07T07:34:56;17.20;99.90
19000;DHT22;9633;50.980;13.850;2023-08-07T07:36:30;17.60;99.90
19000;DHT22;9633;50.980;13.850;2023-08-07T07:38:03;18.50;99.90
19000;DHT22;9633;50.980;13.850;2023-08-07T07:39:35;19.10;99.90
19000;DHT22;9633;50.980;13.850;2023-08-07T07:41:09;19.10;99.90
19000;DHT22;9633;50.980;13.850;2023-08-07T07:42:43;19.10;99.90
19000;DHT22;9633;50.980;13.850;2023-08-07T07:44:16;18.80;99.90
19000;DHT22;9633;50.980;13.850;2023-08-07T07:45:49;18.50;99.90
19000;DHT22;9633;50.980;13.850;2023-08-07T07:47:21;19.10;99.90
19000;DHT22;9633;50.980;13.850;2023-08-07T07:48:54;19.60;99.90
19000;DHT22;9633;50.980;13.850;2023-08-07T07:50:29;19.40;99.90
19000;DHT22;9633;50.980;13.850;2023-08-07T07:52:03;19.20;99.90
19000;DHT22;9633;50.980;13.850;2023-08-07T07:53:37;19.70;99.90
19000;DHT22;9633;50.980;13.850;2023-08-07T07:55:10;19.90;99.90
19000;DHT22;9633;50.980;13.850;2023-08-07T07:56:45;19.90;99.90
19000;DHT22;9633;50.980;13.850;2023-08-07T07:58:19;19.40;99.90
19000;DHT22;9633;50.980;13.850;2023-08-07T07:59:51;18.60;99.90
19000;DHT22;9633;50.980;13.850;2023-08-07T08:01:24;18.70;99.90
19000;DHT22;9633;50.980;13.850;2023-08-07T08:02:57;18.90;99.90
19000;DHT22;9633;50.980;13.850;2023-08-07T08:04:29;19.00;99.90
19000;DHT22;9633;50.980;13.850;2023-08-07T08:06:03;19.10;99.90
19000;DHT22;9633;50.980;13.850;2023-08-07T08:07:38;19.40;99.90
19000;DHT22;9633;50.980;13.850;2023-08-07T08:09:10;19.60;99.90
19000;DHT22;9633;50.980;13.850;2023-08-07T08:10:44;19.50;99.90
19000;DHT22;9633;50.980;13.850;2023-08-07T08:12:16;19.40;99.90
19000;DHT22;9633;50.980;13.850;2023-08-07T08:13:49;19.80;99.90
19000;DHT22;9633;50.980;13.850;2023-08-07T08:15:23;20.20;99.90
19000;DHT22;9633;50.980;13.850;2023-08-07T08:16:56;20.90;99.90
19000;DHT22;9633;50.980;13.850;2023-08-07T08:18:29;21.10;99.90
19000;DHT22;9633;50.980;13.850;2023-08-07T08:20:03;21.30;99.90
19000;DHT22;9633;50.980;13.850;2023-08-07T08:21:35;21.50;97.30
19000;DHT22;9633;50.980;13.850;2023-08-07T08:23:09;21.70;99.90
19000;DHT22;9633;50.980;13.850;2023-08-07T08:24:43;21.90;86.60
19000;DHT22;9633;50.980;13.850;2023-08-07T08:26:15;21.90;28.10
19000;DHT22;9633;50.980;13.850;2023-08-07T08:27:48;22.00;29.20
19000;DHT22;9633;50.980;13.850;2023-08-07T08:29:22;21.70;35.60
19000;DHT22;9633;50.980;13.850;2023-08-07T08:30:56;20.90;47.80
19000;DHT22;9633;50.980;13.850;2023-08-07T08:32:29;20.70;95.00
19000;DHT22;9633;50.980;13.850;2023-08-07T08:34:01;20.50;99.90
19000;DHT22;9633;50.980;13.850;2023-08-07T08:35:35;20.40;99.90
19000;DHT22;9633;50.980;13.850;2023-08-07T08:37:07;20.30;99.90
19000;DHT22;9633;50.980;13.850;2023-08-07T08:38:44;20.50;99.90
19000;DHT22;9633;50.980;13.850;2023-08-07T08:40:17;21.30;99.90
19000;DHT22;9633;50.980;13.850;2023-08-07T08:41:51;20.80;40.00
19000;DHT22;9633;50.980;13.850;2023-08-07T08:43:24;20.50;88.40
19000;DHT22;9633;50.980;13.850;2023-08-07T08:44:59;20.20;42.40
19000;DHT22;9633;50.980;13.850;2023-08-07T08:46:31;20.10;99.90
19000;DHT22;9633;50.980;13.850;2023-08-07T08:48:07;19.50;99.90
19000;DHT22;9633;50.980;13.850;2023-08-07T08:49:46;19.60;99.90
19000;DHT22;9633;50.980;13.850;2023-08-07T08:51:20;19.90;99.90
19000;DHT22;9633;50.980;13.850;2023-08-07T08:52:55;20.30;99.90
19000;DHT22;9633;50.980;13.850;2023-08-07T08:54:29;20.50;99.90
19000;DHT22;9633;50.980;13.850;2023-08-07T08:56:03;20.50;99.90
19000;DHT22;9633;50.980;13.850;2023-08-07T08:57:36;21.10;99.90
19000;DHT22;9633;50.980;13.850;2023-08-07T08:59:10;21.80;59.10
19000;DHT22;9633;50.980;13.850;2023-08-07T09:00:42;21.90;36.00
19000;DHT22;9633;50.980;13.850;2023-08-07T09:02:16;22.20;44.60
19000;DHT22;9633;50.980;13.850;2023-08-07T09:03:49;21.90;35.60
19000;DHT22;9633;50.980;13.850;2023-08-07T09:05:24;21.10;44.90
19000;DHT22;9633;50.980;13.850;2023-08-07T09:06:56;20.90;44.40
19000;DHT22;9633;50.980;13.850;2023-08-07T09:08:30;21.00;39.90
19000;DHT22;9633;50.980;13.850;2023-08-07T09:10:05;21.10;43.00
19000;DHT22;9633;50.980;13.850;2023-08-07T09:11:40;20.80;56.20
19000;DHT22;9633;50.980;13.850;2023-08-07T09:13:14;20.50;53.20
19000;DHT22;9633;50.980;13.850;2023-08-07T09:14:52;20.30;56.40
19000;DHT22;9633;50.980;13.850;2023-08-07T09:16:27;19.80;90.20
19000;DHT22;9633;50.980;13.850;2023-08-07T09:18:00;19.30;99.50
19000;DHT22;9633;50.980;13.850;2023-08-07T09:19:39;19.00;99.90
19000;DHT22;9633;50.980;13.850;2023-08-07T09:21:12;18.80;99.90
19000;DHT22;9633;50.980;13.850;2023-08-07T09:22:48;18.70;99.90
19000;DHT22;9633;50.980;13.850;2023-08-07T09:24:20;18.90;99.90
19000;DHT22;9633;50.980;13.850;2023-08-07T09:26:01;19.00;99.90
19000;DHT22;9633;50.980;13.850;2023-08-07T09:27:33;19.40;99.90
19000;DHT22;9633;50.980;13.850;2023-08-07T09:29:08;19.80;99.90
19000;DHT22;9633;50.980;13.850;2023-08-07T09:30:41;19.90;99.90
19000;DHT22;9633;50.980;13.850;2023-08-07T09:32:16;19.90;99.90
19000;DHT22;9633;50.980;13.850;2023-08-07T09:33:50;19.90;99.90
19000;DHT22;9633;50.980;13.850;2023-08-07T09:35:24;19.50;99.90
19000;DHT22;9633;50.980;13.850;2023-08-07T09:36:56;19.80;99.90
19000;DHT22;9633;50.980;13.850;2023-08-07T09:38:30;20.50;99.90
19000;DHT22;9633;50.980;13.850;2023-08-07T09:40:06;20.70;53.10
19000;DHT22;9633;50.980;13.850;2023-08-07T09:41:43;20.90;55.80
19000;DHT22;9633;50.980;13.850;2023-08-07T09:43:21;20.50;64.20
19000;DHT22;9633;50.980;13.850;2023-08-07T09:44:53;20.20;94.20
19000;DHT22;9633;50.980;13.850;2023-08-07T09:46:26;20.70;97.90
19000;DHT22;9633;50.980;13.850;2023-08-07T09:48:00;20.40;54.40
19000;DHT22;9633;50.980;13.850;2023-08-07T09:49:33;21.10;40.70
19000;DHT22;9633;50.980;13.850;2023-08-07T09:51:07;21.20;51.80